createdAt,value
2022-12-04T00:01:31.696Z,59.10
2022-12-04T00:06:35.670Z,61.90
2022-12-04T00:11:37.910Z,60.50
2022-12-04T00:16:40.404Z,61.30
2022-12-04T00:21:42.074Z,56.00
2022-12-04T00:26:43.235Z,56.40
2022-12-04T00:31:45.525Z,52.80
2022-12-04T00:36:46.671Z,55.60
2022-12-04T00:41:47.947Z,58.20
2022-12-04T00:46:49.312Z,59.00
2022-12-04T00:51:50.472Z,59.50
2022-12-04T00:56:51.636Z,64.20
2022-12-04T01:02:01.601Z,66.80
2022-12-04T01:07:05.173Z,57.40
2022-12-04T01:12:06.890Z,56.00
2022-12-04T01:17:08.055Z,53.60
2022-12-04T01:22:09.370Z,53.10
2022-12-04T01:27:10.531Z,51.60
2022-12-04T01:32:11.837Z,51.20
2022-12-04T01:37:13.202Z,52.40
2022-12-04T01:42:15.829Z,45.10
2022-12-04T01:47:16.890Z,46.70
2022-12-04T01:52:22.128Z,45.10
2022-12-04T01:57:27.174Z,45.60
2022-12-04T02:02:37.288Z,44.50
2022-12-04T02:07:39.894Z,46.30
2022-12-04T02:12:43.859Z,48.90
2022-12-04T02:17:59.363Z,50.20
2022-12-04T02:23:33.470Z,49.30
2022-12-04T02:28:56.257Z,48.70
2022-12-04T02:34:12.594Z,50.80
2022-12-04T02:39:21.209Z,50.20
2022-12-04T02:44:30.241Z,52.20
2022-12-04T02:49:53.367Z,53.60
2022-12-04T02:55:06.756Z,52.00
2022-12-04T03:00:10.630Z,50.90
2022-12-04T03:05:18.923Z,53.30
2022-12-04T03:10:35.367Z,53.00
2022-12-04T03:15:47.865Z,57.10
2022-12-04T03:20:55.843Z,53.30
2022-12-04T03:26:14.571Z,53.40
2022-12-04T03:31:21.142Z,54.10
2022-12-04T03:36:27.766Z,58.70
2022-12-04T03:41:46.550Z,59.80
2022-12-04T03:47:05.405Z,62.80
2022-12-04T03:52:29.194Z,61.80
2022-12-04T03:57:37.307Z,61.50
2022-12-04T04:02:56.831Z,55.20
2022-12-04T04:08:21.609Z,51.70
2022-12-04T04:13:49.407Z,52.70
2022-12-04T04:19:12.258Z,46.70
2022-12-04T04:24:30.932Z,49.90
2022-12-04T04:29:32.502Z,49.10
2022-12-04T04:34:43.320Z,45.50
2022-12-04T04:40:31.246Z,42.10
2022-12-04T04:45:50.225Z,41.20
2022-12-04T04:50:52.917Z,36.40
2022-12-04T04:55:54.185Z,38.80
2022-12-04T05:01:02.765Z,41.20
2022-12-04T05:06:05.995Z,35.90
2022-12-04T05:11:13.964Z,39.70
2022-12-04T05:16:16.003Z,38.30
2022-12-04T05:21:17.293Z,36.80
2022-12-04T05:26:18.555Z,37.00
2022-12-04T05:31:19.885Z,39.40
2022-12-04T05:36:21.078Z,39.10
2022-12-04T05:41:22.810Z,36.70
2022-12-04T05:46:24.149Z,39.40
2022-12-04T05:51:25.377Z,37.10
2022-12-04T05:56:27.766Z,38.70
2022-12-04T06:01:28.883Z,39.90
2022-12-04T06:06:30.089Z,39.70
2022-12-04T06:11:37.229Z,42.50
2022-12-04T06:16:42.205Z,39.50
2022-12-04T06:21:45.792Z,42.30
2022-12-04T06:27:25.132Z,40.60
2022-12-04T06:32:08.801Z,44.80
2022-12-04T06:37:10.230Z,44.40
2022-12-04T06:42:11.601Z,54.80
2022-12-04T06:47:12.756Z,59.10
2022-12-04T06:52:14.016Z,54.70
2022-12-04T06:57:15.282Z,49.50
2022-12-04T07:02:16.588Z,55.00
2022-12-04T07:07:17.914Z,58.70
2022-12-04T07:12:19.092Z,66.20
2022-12-04T07:17:20.234Z,43.80
2022-12-04T07:22:21.368Z,45.20
2022-12-04T07:27:22.657Z,46.90
2022-12-04T07:32:24.021Z,38.30
2022-12-04T07:37:25.791Z,36.20
2022-12-04T07:42:28.180Z,35.20
2022-12-04T07:47:29.240Z,39.40
2022-12-04T07:52:30.916Z,38.10
2022-12-04T07:57:32.284Z,32.50
2022-12-04T08:02:33.480Z,33.70
2022-12-04T08:07:34.797Z,36.70
2022-12-04T08:12:36.129Z,33.00
2022-12-04T08:17:37.267Z,36.10
2022-12-04T08:22:38.618Z,32.20
2022-12-04T08:27:45.961Z,33.90
2022-12-04T08:32:48.699Z,38.20
2022-12-04T08:37:49.888Z,27.40
2022-12-04T08:42:51.150Z,29.20
2022-12-04T08:47:52.666Z,30.10
2022-12-04T08:52:54.059Z,30.20
2022-12-04T08:57:55.218Z,34.70
2022-12-04T09:02:57.095Z,33.80
2022-12-04T09:07:58.307Z,36.10
2022-12-04T09:12:59.529Z,35.30
2022-12-04T09:18:00.781Z,34.70
2022-12-04T09:23:04.728Z,42.20
2022-12-04T09:28:06.276Z,37.50
2022-12-04T09:33:14.915Z,32.70
2022-12-04T09:38:16.053Z,36.80
2022-12-04T09:43:48.877Z,33.20
2022-12-04T09:48:51.572Z,33.40
2022-12-04T09:54:02.155Z,32.30
2022-12-04T09:59:24.056Z,30.40
2022-12-04T10:04:25.532Z,29.20
2022-12-04T10:09:48.129Z,29.90
2022-12-04T10:15:19.500Z,36.50
2022-12-04T10:20:49.330Z,39.20
2022-12-04T10:25:54.535Z,34.80
2022-12-04T10:31:01.157Z,35.00
2022-12-04T10:36:03.197Z,31.10
2022-12-04T10:41:15.189Z,30.80
2022-12-04T10:46:30.822Z,30.50
2022-12-04T10:51:40.591Z,29.00
2022-12-04T10:57:10.259Z,35.00
2022-12-04T11:02:11.509Z,31.60
2022-12-04T11:07:21.320Z,34.00
2022-12-04T11:12:23.158Z,33.70
2022-12-04T11:17:24.219Z,34.00
2022-12-04T11:22:25.484Z,33.90
2022-12-04T11:27:33.658Z,35.10
2022-12-04T11:32:37.227Z,40.00
2022-12-04T11:37:43.662Z,40.30
2022-12-04T11:43:09.503Z,35.60
2022-12-04T11:48:16.854Z,40.00
2022-12-04T11:53:36.344Z,34.20
2022-12-04T11:58:52.599Z,33.90
2022-12-04T12:04:05.940Z,30.80
2022-12-04T12:09:16.204Z,32.80
2022-12-04T12:14:25.345Z,40.70
2022-12-04T12:19:38.468Z,46.90
2022-12-04T12:25:10.860Z,39.20
2022-12-04T12:30:18.784Z,35.00
2022-12-04T12:35:44.407Z,33.80
2022-12-04T12:40:58.501Z,34.90
2022-12-04T12:46:03.671Z,33.90
2022-12-04T12:51:35.036Z,33.10
2022-12-04T12:56:46.294Z,33.20
2022-12-04T13:02:14.012Z,37.20
2022-12-04T13:07:18.418Z,39.60
2022-12-04T13:12:22.291Z,40.20
2022-12-04T13:17:39.066Z,41.90
2022-12-04T13:23:12.214Z,48.10
2022-12-04T13:28:35.663Z,45.80
2022-12-04T13:34:04.880Z,51.40
2022-12-04T13:39:35.532Z,46.10
2022-12-04T13:44:36.687Z,45.20
2022-12-04T13:49:45.267Z,44.90
2022-12-04T13:54:58.185Z,43.90
2022-12-04T14:00:26.503Z,45.80
2022-12-04T14:05:41.057Z,57.90
2022-12-04T14:10:42.435Z,71.30
2022-12-04T14:15:44.072Z,55.50
2022-12-04T14:20:58.388Z,50.70
2022-12-04T14:26:00.733Z,42.20
2022-12-04T14:31:04.741Z,40.10
2022-12-04T14:36:10.544Z,45.50
2022-12-04T14:41:11.791Z,46.40
2022-12-04T14:46:25.114Z,45.90
2022-12-04T14:51:51.745Z,48.30
2022-12-04T14:57:05.178Z,46.90
2022-12-04T15:02:18.077Z,47.00
2022-12-04T15:07:21.285Z,52.60
2022-12-04T15:12:33.196Z,52.60
2022-12-04T15:17:34.766Z,49.10
2022-12-04T15:22:36.032Z,46.80
2022-12-04T15:27:37.395Z,44.60
2022-12-04T15:32:38.468Z,41.20
2022-12-04T15:37:40.534Z,40.10
2022-12-04T15:42:41.691Z,40.30
2022-12-04T15:47:42.703Z,42.20
2022-12-04T15:53:12.791Z,41.70
2022-12-04T15:58:18.902Z,40.60
2022-12-04T16:03:26.114Z,50.90
2022-12-04T16:08:32.835Z,39.70
2022-12-04T16:13:37.097Z,41.70
2022-12-04T16:18:38.926Z,46.00
2022-12-04T16:23:40.070Z,55.90
2022-12-04T16:28:41.497Z,49.00
2022-12-04T16:33:42.606Z,43.50
2022-12-04T16:38:43.847Z,44.50
2022-12-04T16:43:45.181Z,46.20
2022-12-04T16:48:46.349Z,39.00
2022-12-04T16:53:48.633Z,39.90
2022-12-04T16:58:49.996Z,42.00
2022-12-04T17:03:51.177Z,37.60
2022-12-04T17:08:52.324Z,38.70
2022-12-04T17:13:53.385Z,36.60
2022-12-04T17:18:54.559Z,39.60
2022-12-04T17:23:56.013Z,38.20
2022-12-04T17:28:57.779Z,38.00
2022-12-04T17:33:58.913Z,32.60
2022-12-04T17:39:03.448Z,35.70
2022-12-04T17:44:04.850Z,33.50
2022-12-04T17:49:07.495Z,37.30
2022-12-04T17:54:10.273Z,37.80
2022-12-04T17:59:11.704Z,39.10
2022-12-04T18:04:12.842Z,37.10
2022-12-04T18:09:15.850Z,38.30
2022-12-04T18:14:31.467Z,40.00
2022-12-04T18:19:32.629Z,39.10
2022-12-04T18:24:33.799Z,42.80
2022-12-04T18:29:35.770Z,40.60
2022-12-04T18:34:37.135Z,36.80
2022-12-04T18:39:38.250Z,40.70
2022-12-04T18:44:40.275Z,42.20
2022-12-04T18:49:41.549Z,44.00
2022-12-04T18:54:42.952Z,41.80
2022-12-04T18:59:44.166Z,43.40
2022-12-04T19:04:46.045Z,44.00
2022-12-04T19:10:21.704Z,43.90
2022-12-04T19:15:08.638Z,51.50
2022-12-04T19:20:10.405Z,44.70
2022-12-04T19:25:11.572Z,42.40
2022-12-04T19:30:13.352Z,42.70
2022-12-04T19:35:14.610Z,45.10
2022-12-04T19:40:15.911Z,46.50
2022-12-04T19:45:17.191Z,48.60
2022-12-04T19:50:18.398Z,48.10
2022-12-04T19:55:19.524Z,50.40
2022-12-04T20:00:20.661Z,48.80
2022-12-04T20:05:21.773Z,45.20
2022-12-04T20:10:22.848Z,43.20
2022-12-04T20:15:23.999Z,47.90
2022-12-04T20:20:25.157Z,41.80
2022-12-04T20:25:26.352Z,44.50
2022-12-04T20:30:27.802Z,44.80
2022-12-04T20:35:28.922Z,39.70
2022-12-04T20:40:30.357Z,45.40
2022-12-04T20:45:32.431Z,45.80
2022-12-04T20:50:33.654Z,46.40
2022-12-04T20:55:34.816Z,48.70
2022-12-04T21:00:36.079Z,48.00
2022-12-04T21:05:37.236Z,45.00
2022-12-04T21:10:38.402Z,46.80
2022-12-04T21:15:58.264Z,44.10
2022-12-04T21:21:00.916Z,41.70
2022-12-04T21:26:02.359Z,39.80
2022-12-04T21:31:05.434Z,39.50
2022-12-04T21:36:08.994Z,39.10
2022-12-04T21:41:30.692Z,39.00
2022-12-04T21:46:32.280Z,39.00
2022-12-04T21:51:56.339Z,39.80
2022-12-04T21:56:55.883Z,40.00
2022-12-04T22:01:57.334Z,43.20
2022-12-04T22:06:58.549Z,37.20
2022-12-04T22:11:59.809Z,38.40
2022-12-04T22:17:03.426Z,39.20
2022-12-04T22:22:04.691Z,38.30
2022-12-04T22:27:05.839Z,38.10
2022-12-04T22:32:06.975Z,38.30
2022-12-04T22:37:10.371Z,37.80
2022-12-04T22:42:11.479Z,36.60
2022-12-04T22:47:12.689Z,33.80
2022-12-04T22:52:15.034Z,33.70
2022-12-04T22:57:16.852Z,35.30
2022-12-04T23:02:18.581Z,35.80
2022-12-04T23:07:19.752Z,38.20
2022-12-04T23:12:20.882Z,36.90
2022-12-04T23:17:22.518Z,37.20
2022-12-04T23:22:23.735Z,34.80
2022-12-04T23:27:24.895Z,36.20
2022-12-04T23:32:25.976Z,39.00
2022-12-04T23:37:27.068Z,38.40
2022-12-04T23:42:31.891Z,36.50
2022-12-04T23:47:36.103Z,37.80
2022-12-04T23:52:37.262Z,34.40
2022-12-04T23:57:38.344Z,36.50
